Time;durP1;ratioP1;P1;durP2;ratioP2;P2;SDS_P1;SDS_P2;PMS_P1;PMS_P2;Temp;Humidity;BMP_temperature;BMP_pressure;BME280_temperature;BME280_humidity;BME280_pressure;Samples;Min_cycle;Max_cycle;Signal;HPM_P1;HPM_P2
2022/12/02 00:02:57;;;;;;;175.52;43.55;;;;;;;4.49;100.00;102421.25;5133065;27;20050;-77
2022/12/02 00:08:44;;;;;;;176.48;47.05;;;;;;;4.44;100.00;102420.81;5133203;28;20392;-77
2022/12/02 00:11:27;;;;;;;189.73;51.08;;;;;;;4.47;100.00;102425.00;5114464;28;20031;-78
2022/12/02 00:13:55;;;;;;;204.35;58.90;;;;;;;4.34;100.00;102415.50;5132876;28;20035;-77
2022/12/02 00:19:42;;;;;;;171.85;48.55;;;;;;;4.29;100.00;102404.44;5133260;28;20403;-78
2022/12/02 00:22:08;;;;;;;188.88;52.08;;;;;;;4.21;100.00;102404.28;5114275;28;20039;-78
2022/12/02 00:24:33;;;;;;;177.30;55.30;;;;;;;4.21;100.00;102408.75;5132524;28;20063;-78
2022/12/02 00:26:58;;;;;;;177.98;48.10;;;;;;;4.21;100.00;102419.34;5114218;28;20122;-78
2022/12/02 00:29:24;;;;;;;177.80;48.03;;;;;;;4.19;100.00;102408.03;5117906;28;20039;-78
2022/12/02 00:31:49;;;;;;;181.50;53.83;;;;;;;4.13;100.00;102396.19;5136185;28;20461;-79
2022/12/02 00:34:14;;;;;;;179.50;50.72;;;;;;;4.12;100.00;102406.91;5139625;27;20043;-79
2022/12/02 00:36:39;;;;;;;172.10;51.00;;;;;;;4.11;100.00;102402.59;5136047;28;20403;-79
2022/12/02 00:42:26;;;;;;;162.18;48.83;;;;;;;4.09;100.00;102396.59;5136415;28;20070;-79
2022/12/02 00:47:35;;;;;;;154.88;53.40;;;;;;;4.01;100.00;102402.53;5139356;27;20421;-79
2022/12/02 00:53:22;;;;;;;161.35;47.85;;;;;;;3.88;100.00;102386.88;5136047;28;20046;-79
2022/12/02 00:55:48;;;;;;;166.68;48.15;;;;;;;3.87;100.00;102389.66;5117579;28;20031;-79
2022/12/02 00:58:13;;;;;;;160.35;47.40;;;;;;;3.88;100.00;102383.41;5118741;27;20030;-79
2022/12/02 01:00:38;;;;;;;161.13;47.40;;;;;;;3.83;100.00;102385.59;5137556;27;20122;-78
2022/12/02 01:03:03;;;;;;;168.02;48.60;;;;;;;3.83;100.00;102389.09;5136912;28;20057;-79
2022/12/02 01:08:51;;;;;;;165.13;49.42;;;;;;;3.87;100.00;102385.19;5136073;28;20090;-80
2022/12/02 01:11:16;;;;;;;172.60;48.38;;;;;;;3.84;100.00;102387.28;5139268;27;20126;-80
2022/12/02 01:17:04;;;;;;;154.00;44.15;;;;;;;3.84;100.00;102377.53;5139003;27;20068;-80
2022/12/02 01:19:29;;;;;;;177.20;50.17;;;;;;;3.78;100.00;102375.41;5135989;28;20019;-80
2022/12/02 01:25:17;;;;;;;158.05;45.33;;;;;;;3.73;100.00;102373.16;5137049;28;20042;-79
2022/12/02 01:27:42;;;;;;;156.75;47.08;;;;;;;3.70;100.00;102378.69;5135414;28;20027;-78
2022/12/02 01:33:29;;;;;;;166.18;48.60;;;;;;;3.66;100.00;102376.44;5135619;28;20627;-78
2022/12/02 01:39:16;;;;;;;160.05;46.97;;;;;;;3.70;100.00;102385.78;5134732;27;20050;-80
2022/12/02 01:45:04;;;;;;;149.33;43.30;;;;;;;3.70;100.00;102388.44;5134865;27;20076;-80
2022/12/02 01:47:30;;;;;;;139.90;41.00;;;;;;;3.68;100.00;102383.28;5138519;27;20762;-79
2022/12/02 01:49:56;;;;;;;130.77;38.88;;;;;;;3.66;100.00;102389.69;5116562;28;20029;-78
2022/12/02 01:59:09;;;;;;;127.82;39.00;;;;;;;3.62;100.00;102378.53;5135115;28;20066;-78
2022/12/02 02:01:34;;;;;;;145.85;42.80;;;;;;;3.60;100.00;102374.34;5115938;28;20043;-78
2022/12/02 02:04:01;;;;;;;143.57;40.63;;;;;;;3.68;100.00;102385.09;5134610;28;20364;-77
2022/12/02 02:06:29;;;;;;;145.68;39.88;;;;;;;3.59;100.00;102386.72;5137783;27;20471;-79
2022/12/02 02:08:56;;;;;;;147.13;41.80;;;;;;;3.54;100.00;102378.34;5134469;28;20023;-77
2022/12/02 02:14:43;;;;;;;135.88;42.70;;;;;;;3.54;100.00;102375.69;5134680;28;20467;-78
2022/12/02 02:17:08;;;;;;;147.52;44.33;;;;;;;3.44;100.00;102364.22;5134557;28;20106;-78
2022/12/02 02:19:35;;;;;;;148.13;38.83;;;;;;;3.43;100.00;102368.66;5115405;28;20043;-77
2022/12/02 02:22:10;;;;;;;158.82;44.70;;;;;;;3.38;100.00;102362.94;5134455;28;20055;-77
2022/12/02 02:24:35;;;;;;;147.85;43.13;;;;;;;3.37;100.00;102376.28;5137350;27;20047;-78
2022/12/02 02:30:23;;;;;;;141.43;41.20;;;;;;;3.28;100.00;102362.03;5134451;28;20042;-77
2022/12/02 02:32:49;;;;;;;147.23;43.92;;;;;;;3.32;100.00;102376.66;5115790;28;20021;-77
2022/12/02 02:35:16;;;;;;;140.20;40.90;;;;;;;3.30;100.00;102372.47;5115589;28;20033;-78
2022/12/02 02:37:42;;;;;;;142.98;42.60;;;;;;;3.21;100.00;102362.69;5137401;27;20475;-79
2022/12/02 02:40:09;;;;;;;145.55;42.75;;;;;;;3.22;100.00;102359.91;5133972;28;20061;-77
2022/12/02 02:42:34;;;;;;;138.60;43.40;;;;;;;3.16;100.00;102363.03;5136513;27;20047;-77
2022/12/02 02:48:22;;;;;;;135.20;38.88;;;;;;;3.14;100.00;102354.41;5134278;28;20050;-77
2022/12/02 02:50:48;;;;;;;127.47;37.88;;;;;;;3.17;100.00;102362.06;5135908;27;20035;-78
2022/12/02 02:53:17;;;;;;;123.68;37.40;;;;;;;3.16;100.00;102355.13;5134381;28;20020;-77
2022/12/02 02:59:04;;;;;;;115.38;36.65;;;;;;;3.13;100.00;102349.25;5134260;28;20501;-79
2022/12/02 03:01:34;;;;;;;102.60;34.60;;;;;;;3.17;100.00;102351.50;5117104;27;20035;-79
2022/12/02 03:04:04;;;;;;;112.20;34.10;;;;;;;3.12;100.00;102335.19;5134828;27;20092;-80
2022/12/02 03:06:31;;;;;;;111.53;34.17;;;;;;;3.14;100.00;102343.84;5115442;28;20463;-80
2022/12/02 03:08:58;;;;;;;114.93;36.45;;;;;;;3.07;100.00;102340.88;5136718;27;20043;-79
2022/12/02 03:11:24;;;;;;;113.05;37.88;;;;;;;2.98;100.00;102325.81;5115197;28;20670;-80
2022/12/02 03:13:51;;;;;;;116.50;37.67;;;;;;;3.03;100.00;102336.81;5115011;28;20417;-79
2022/12/02 03:16:20;;;;;;;110.25;33.83;;;;;;;3.03;100.00;102335.97;5114623;28;20092;-79
2022/12/02 03:18:46;;;;;;;104.70;35.08;;;;;;;2.96;100.00;102340.09;5115070;28;20023;-80
2022/12/02 03:21:14;;;;;;;109.15;37.22;;;;;;;2.89;100.00;102331.84;5136571;27;20103;-79
2022/12/02 03:27:02;;;;;;;107.15;37.15;;;;;;;2.85;100.00;102329.56;5132209;28;20522;-79
2022/12/02 03:32:49;;;;;;;116.25;36.03;;;;;;;2.76;100.00;102328.53;5133388;28;20403;-79
2022/12/02 03:35:14;;;;;;;106.93;33.83;;;;;;;2.78;100.00;102340.66;5117295;28;20019;-77
2022/12/02 03:41:03;;;;;;;100.28;34.70;;;;;;;2.73;100.00;102332.28;5131177;28;20095;-79
2022/12/02 03:43:29;;;;;;;111.32;34.47;;;;;;;2.68;100.00;102318.59;5115417;27;20030;-81
2022/12/02 03:45:55;;;;;;;112.25;36.17;;;;;;;2.66;100.00;102309.13;5140798;27;20047;-79
2022/12/02 03:48:22;;;;;;;100.22;31.58;;;;;;;2.67;100.00;102308.19;5138780;28;20023;-81
2022/12/02 03:50:49;;;;;;;107.35;36.38;;;;;;;2.65;100.00;102312.75;5138211;28;20035;-80
2022/12/02 03:53:14;;;;;;;116.32;34.80;;;;;;;2.62;100.00;102308.56;5128641;28;20498;-81
2022/12/02 03:55:40;;;;;;;113.63;36.50;;;;;;;2.68;100.00;102315.97;5114464;28;20035;-80
2022/12/02 03:58:08;;;;;;;106.30;36.33;;;;;;;2.69;100.00;102304.44;5113876;28;20043;-80
2022/12/02 04:00:35;;;;;;;116.85;35.53;;;;;;;2.74;100.00;102307.53;5132709;27;20485;-79
2022/12/02 04:03:00;;;;;;;111.22;34.20;;;;;;;2.72;100.00;102306.81;5133184;28;20205;-79
2022/12/02 04:05:26;;;;;;;108.43;35.97;;;;;;;2.69;100.00;102312.38;5113930;28;20074;-79
2022/12/02 04:07:51;;;;;;;108.72;30.90;;;;;;;2.69;100.00;102312.38;5132611;28;20043;-80
2022/12/02 04:10:16;;;;;;;109.90;34.08;;;;;;;2.70;100.00;102315.84;5113916;28;20043;-79
2022/12/02 04:12:42;;;;;;;101.30;32.80;;;;;;;2.63;100.00;102301.47;5115434;28;20035;-80
2022/12/02 04:15:07;;;;;;;91.32;30.17;;;;;;;2.60;100.00;102301.69;5132988;28;20038;-79
2022/12/02 04:17:33;;;;;;;91.22;29.10;;;;;;;2.67;100.00;102301.09;5135841;27;20329;-79
2022/12/02 04:19:58;;;;;;;93.30;32.42;;;;;;;2.62;100.00;102302.44;5133771;28;20027;-80
2022/12/02 04:22:23;;;;;;;99.75;30.58;;;;;;;2.47;100.00;102278.13;5138941;27;20105;-79
2022/12/02 04:28:10;;;;;;;81.70;28.40;;;;;;;2.54;100.00;102287.19;5133396;28;20788;-82
2022/12/02 04:30:36;;;;;;;108.75;32.67;;;;;;;2.52;100.00;102293.56;5138803;27;20032;-79
2022/12/02 04:33:01;;;;;;;99.47;32.38;;;;;;;2.49;100.00;102290.22;5132507;28;20054;-80
2022/12/02 04:35:26;;;;;;;103.72;36.22;;;;;;;2.44;100.00;102296.84;5113227;28;20046;-80
2022/12/02 04:41:14;;;;;;;97.97;32.30;;;;;;;2.40;100.00;102296.25;5133098;27;20434;-80
2022/12/02 04:43:39;;;;;;;99.18;32.13;;;;;;;2.43;100.00;102298.66;5120343;27;20035;-82
2022/12/02 04:46:04;;;;;;;88.47;26.83;;;;;;;2.45;100.00;102295.88;5113932;28;20391;-80
2022/12/02 04:51:51;;;;;;;104.68;31.58;;;;;;;2.38;100.00;102277.09;5132687;28;20045;-81
2022/12/02 04:54:17;;;;;;;96.78;30.90;;;;;;;2.44;100.00;102279.22;5134998;27;20038;-80
2022/12/02 04:56:42;;;;;;;98.78;30.48;;;;;;;2.39;100.00;102276.13;5132753;27;20451;-79
2022/12/02 04:59:07;;;;;;;98.07;29.88;;;;;;;2.42;100.00;102280.31;5113620;28;20118;-80
2022/12/02 05:01:32;;;;;;;89.88;30.88;;;;;;;2.39;100.00;102270.84;5113150;28;20406;-79
2022/12/02 05:03:58;;;;;;;94.70;30.20;;;;;;;2.45;100.00;102272.13;5113631;28;20035;-80
2022/12/02 05:06:23;;;;;;;81.50;28.42;;;;;;;2.47;100.00;102268.41;5135038;27;20074;-80
2022/12/02 05:08:49;;;;;;;81.82;28.27;;;;;;;2.43;100.00;102263.50;5113715;28;20035;-80
2022/12/02 05:14:35;;;;;;;78.65;26.17;;;;;;;2.45;100.00;102264.22;5135262;28;20086;-79
2022/12/02 05:23:55;;;;;;;75.35;25.98;;;;;;;2.42;100.00;102254.75;5135623;28;20114;-79
2022/12/02 05:29:42;;;;;;;72.65;24.42;;;;;;;2.48;100.00;102259.50;5135415;28;20046;-79
2022/12/02 05:32:07;;;;;;;68.47;24.30;;;;;;;2.41;100.00;102268.91;5116169;28;20372;-79
2022/12/02 05:37:55;;;;;;;73.38;25.23;;;;;;;2.40;100.00;102258.47;5132987;28;20412;-79
2022/12/02 05:43:42;;;;;;;66.30;22.40;;;;;;;2.38;100.00;102255.13;5135643;27;20406;-78
2022/12/02 05:49:29;;;;;;;66.03;23.23;;;;;;;2.42;100.00;102254.75;5135323;27;20046;-77
2022/12/02 05:51:57;;;;;;;65.93;22.85;;;;;;;2.43;100.00;102258.22;5134902;28;20020;-78
2022/12/02 05:57:44;;;;;;;67.35;22.15;;;;;;;2.46;100.00;102261.44;5134865;28;20034;-78
2022/12/02 06:03:31;;;;;;;66.03;21.38;;;;;;;2.35;100.00;102250.94;5134825;28;20057;-79
2022/12/02 06:05:57;;;;;;;57.47;19.52;;;;;;;2.37;100.00;102253.44;5116455;27;20031;-77
2022/12/02 06:11:46;;;;;;;58.67;19.45;;;;;;;2.37;100.00;102253.44;5140459;28;20459;-80
2022/12/02 06:17:33;;;;;;;57.28;21.27;;;;;;;2.34;100.00;102256.34;5138016;28;20454;-77
2022/12/02 06:23:21;;;;;;;66.25;21.77;;;;;;;2.32;100.00;102259.13;5135026;27;20057;-76
2022/12/02 06:25:48;;;;;;;63.78;24.83;;;;;;;2.28;100.00;102257.66;5137496;27;20379;-78
2022/12/02 06:31:41;;;;;;;60.45;22.58;;;;;;;2.27;100.00;102257.78;5134660;28;20445;-79
2022/12/02 06:37:29;;;;;;;60.22;20.05;;;;;;;2.21;100.00;102247.72;5136500;28;20167;-77
2022/12/02 06:39:56;;;;;;;61.67;21.15;;;;;;;2.22;100.00;102249.41;5117174;28;20035;-78
2022/12/02 06:45:44;;;;;;;57.58;20.90;;;;;;;2.22;100.00;102244.13;5136771;27;20038;-78
2022/12/02 06:51:31;;;;;;;60.70;22.38;;;;;;;2.23;100.00;102259.00;5134742;28;20107;-78
2022/12/02 06:53:56;;;;;;;61.63;21.02;;;;;;;2.22;100.00;102249.41;5115915;28;20023;-77
2022/12/02 06:59:48;;;;;;;57.72;20.35;;;;;;;2.26;100.00;102249.03;5134082;28;20080;-79
2022/12/02 07:05:35;;;;;;;59.17;22.23;;;;;;;2.25;100.00;102247.34;5132060;28;20050;-78
2022/12/02 07:08:00;;;;;;;58.08;19.55;;;;;;;2.24;100.00;102247.47;5137505;27;20039;-80
2022/12/02 07:13:48;;;;;;;56.15;18.05;;;;;;;2.27;100.00;102260.41;5134462;28;20066;-78
2022/12/02 07:19:38;;;;;;;56.25;19.17;;;;;;;2.24;100.00;102261.50;5134342;27;20046;-77
2022/12/02 07:25:28;;;;;;;59.92;20.05;;;;;;;2.26;100.00;102262.22;5134250;28;20041;-78
2022/12/02 07:37:59;;;;;;;50.50;17.60;;;;;;;2.23;100.00;102261.63;5131933;28;20568;-78
2022/12/02 07:43:46;;;;;;;51.38;18.88;;;;;;;2.17;100.00;102250.63;5131853;27;20050;-76
2022/12/02 07:49:32;;;;;;;53.95;19.27;;;;;;;2.20;100.00;102256.63;5133221;28;20108;-77
2022/12/02 07:55:19;;;;;;;51.75;18.90;;;;;;;2.26;100.00;102256.94;5131719;28;20547;-77
2022/12/02 07:57:44;;;;;;;51.90;17.38;;;;;;;2.25;100.00;102255.28;5114541;28;20062;-76
2022/12/02 08:00:11;;;;;;;54.70;20.50;;;;;;;2.23;100.00;102256.38;5113914;28;20456;-76
2022/12/02 08:02:36;;;;;;;56.20;19.70;;;;;;;2.21;100.00;102255.66;5133119;28;20076;-76
2022/12/02 08:05:02;;;;;;;49.63;17.20;;;;;;;2.26;100.00;102264.88;5136697;27;20054;-75
2022/12/02 08:10:48;;;;;;;53.75;20.45;;;;;;;2.22;100.00;102263.44;5131019;28;20172;-76
2022/12/02 08:16:36;;;;;;;53.85;18.13;;;;;;;2.28;100.00;102260.28;5132959;28;20099;-76
2022/12/02 08:22:22;;;;;;;50.30;17.98;;;;;;;2.37;100.00;102267.47;5134498;27;20117;-77
2022/12/02 08:28:09;;;;;;;50.10;17.92;;;;;;;2.30;100.00;102255.72;5128773;28;20127;-77
2022/12/02 08:33:56;;;;;;;64.05;20.65;;;;;;;2.25;100.00;102259.72;5136341;27;20073;-76
2022/12/02 08:39:43;;;;;;;60.47;23.20;;;;;;;2.15;100.00;102254.34;5133150;28;20382;-78
2022/12/02 08:42:08;;;;;;;61.63;21.08;;;;;;;2.19;100.00;102258.41;5114470;28;20023;-76
2022/12/02 08:44:34;;;;;;;62.53;23.33;;;;;;;2.17;100.00;102255.91;5132466;27;20038;-79
2022/12/02 08:46:59;;;;;;;62.03;20.55;;;;;;;2.22;100.00;102257.31;5135786;27;20027;-79
2022/12/02 08:52:47;;;;;;;65.32;22.45;;;;;;;2.18;100.00;102265.50;5136412;28;20136;-79
2022/12/02 08:55:12;;;;;;;54.63;20.58;;;;;;;2.18;100.00;102265.50;5136069;28;20039;-79
2022/12/02 08:57:37;;;;;;;51.42;19.58;;;;;;;2.23;100.00;102253.72;5117174;28;20403;-77
2022/12/02 09:00:07;;;;;;;46.42;19.55;;;;;;;2.18;100.00;102264.66;5117563;28;20019;-78
2022/12/02 09:02:33;;;;;;;52.95;20.40;;;;;;;2.13;100.00;102251.84;5135967;28;20037;-78
2022/12/02 09:04:58;;;;;;;62.42;21.08;;;;;;;2.10;100.00;102252.09;5138945;27;20576;-79
2022/12/02 09:07:23;;;;;;;53.15;18.27;;;;;;;2.10;100.00;102248.63;5117908;28;20066;-78
2022/12/02 09:09:49;;;;;;;45.90;16.77;;;;;;;2.08;100.00;102255.81;5116559;28;20031;-78
2022/12/02 09:12:14;;;;;;;53.50;20.10;;;;;;;2.09;100.00;102257.50;5136120;28;20023;-78
2022/12/02 09:14:39;;;;;;;50.40;18.95;;;;;;;2.03;100.00;102261.47;5136771;27;20416;-77
2022/12/02 09:17:05;;;;;;;61.47;22.40;;;;;;;2.06;100.00;102258.59;5119237;28;20035;-78
2022/12/02 09:19:30;;;;;;;50.72;19.98;;;;;;;2.04;100.00;102259.66;5117335;28;20110;-78
2022/12/02 09:21:55;;;;;;;54.53;21.38;;;;;;;2.09;100.00;102246.94;5139588;27;20035;-77
2022/12/02 09:24:21;;;;;;;50.63;18.40;;;;;;;2.03;100.00;102255.34;5117154;28;20139;-78
2022/12/02 09:26:46;;;;;;;40.38;17.15;;;;;;;1.99;100.00;102248.63;5138412;27;20505;-78
2022/12/02 09:29:12;;;;;;;41.53;14.77;;;;;;;1.99;100.00;102244.19;5135645;28;20106;-78
2022/12/02 09:31:37;;;;;;;43.65;16.95;;;;;;;1.93;100.00;102251.75;5135445;28;20030;-77
2022/12/02 09:34:02;;;;;;;43.88;16.35;;;;;;;1.93;100.00;102252.59;5116322;28;20035;-78
2022/12/02 09:36:27;;;;;;;44.50;17.45;;;;;;;1.95;100.00;102249.84;5135375;28;20451;-78
2022/12/02 09:38:53;;;;;;;43.78;16.50;;;;;;;1.98;100.00;102246.94;5138419;27;20108;-78
2022/12/02 09:41:18;;;;;;;47.63;16.23;;;;;;;1.93;100.00;102242.03;5135255;28;20065;-78
2022/12/02 09:43:43;;;;;;;44.60;17.75;;;;;;;1.96;100.00;102238.31;5136290;27;20076;-78
2022/12/02 09:46:09;;;;;;;39.95;15.30;;;;;;;1.99;100.00;102238.91;5118783;28;20099;-78
2022/12/02 09:48:35;;;;;;;45.85;16.27;;;;;;;2.02;100.00;102246.56;5135073;28;20027;-78
2022/12/02 09:51:00;;;;;;;42.65;15.43;;;;;;;1.97;100.00;102232.94;5138122;27;20091;-78
2022/12/02 09:53:32;;;;;;;41.58;15.43;;;;;;;2.03;100.00;102236.88;5135127;28;20023;-78
2022/12/02 09:55:58;;;;;;;46.60;16.55;;;;;;;1.97;100.00;102232.94;5116103;28;20035;-78
2022/12/02 09:58:25;;;;;;;44.72;15.95;;;;;;;1.98;100.00;102239.88;5134966;27;20068;-78
2022/12/02 10:00:51;;;;;;;37.80;15.90;;;;;;;2.05;100.00;102251.63;5134648;28;20031;-78
2022/12/02 10:03:22;;;;;;;51.42;16.67;;;;;;;2.04;100.00;102236.75;5138093;27;20077;-78
2022/12/02 10:05:48;;;;;;;44.08;17.55;;;;;;;2.05;100.00;102238.44;5134826;28;20039;-78
2022/12/02 10:08:20;;;;;;;60.42;18.63;;;;;;;2.03;100.00;102234.25;5138689;27;20035;-78
2022/12/02 10:10:46;;;;;;;46.20;15.63;;;;;;;2.08;100.00;102240.00;5116274;28;20023;-77
2022/12/02 10:13:17;;;;;;;54.63;16.92;;;;;;;2.10;100.00;102231.00;5138171;27;20575;-78
2022/12/02 10:15:43;;;;;;;57.15;19.45;;;;;;;2.12;100.00;102238.78;5116497;28;20019;-79
2022/12/02 10:18:19;;;;;;;44.63;17.10;;;;;;;2.14;100.00;102235.03;5134828;28;20107;-77
2022/12/02 10:20:45;;;;;;;69.03;23.38;;;;;;;2.11;100.00;102235.31;5138403;27;20401;-78
2022/12/02 10:23:18;;;;;;;51.05;19.58;;;;;;;2.11;100.00;102239.75;5116162;28;20104;-78
2022/12/02 10:25:45;;;;;;;;;;;;;;;2.13;100.00;102233.38;5138069;27;20043;-78
2022/12/02 10:28:27;;;;;;;59.58;18.70;;;;;;;2.03;100.00;102227.19;5116091;28;20351;-77
2022/12/02 10:30:57;;;;;;;54.08;18.73;;;;;;;2.07;100.00;102227.75;5138213;27;20126;-78
2022/12/02 10:33:25;;;;;;;68.78;19.17;;;;;;;2.18;100.00;102227.72;5134587;28;20046;-77
2022/12/02 10:35:53;;;;;;;54.38;17.10;;;;;;;2.15;100.00;102228.81;5116254;28;20081;-78
2022/12/02 10:38:38;;;;;;;68.88;24.05;;;;;;;2.12;100.00;102226.41;5104732;28;20041;-77
2022/12/02 10:41:10;;;;;;;62.22;20.60;;;;;;;2.18;100.00;102219.81;5116014;28;20027;-78
2022/12/02 10:43:35;;;;;;;63.47;21.55;;;;;;;2.17;100.00;102207.56;5115093;27;20043;-78
2022/12/02 10:46:00;;;;;;;68.70;20.98;;;;;;;2.25;100.00;102207.78;5115858;28;20344;-77
2022/12/02 10:48:26;;;;;;;64.97;18.65;;;;;;;2.23;100.00;102201.78;5137316;27;20039;-78
2022/12/02 10:50:51;;;;;;;70.47;25.60;;;;;;;2.27;100.00;102205.00;5134215;28;20031;-77
2022/12/02 10:53:18;;;;;;;74.60;24.25;;;;;;;2.19;100.00;102203.00;5115760;28;20118;-78
2022/12/02 10:55:45;;;;;;;61.60;20.35;;;;;;;2.20;100.00;102194.13;5115417;28;20517;-78
2022/12/02 10:58:18;;;;;;;73.57;23.65;;;;;;;2.33;100.00;102197.44;5115674;28;20080;-77
2022/12/02 11:00:44;;;;;;;68.65;21.38;;;;;;;2.37;100.00;102193.59;5137159;27;20394;-78
2022/12/02 11:03:09;;;;;;;76.95;24.60;;;;;;;2.38;100.00;102191.78;5133823;28;20024;-78
2022/12/02 11:05:36;;;;;;;73.43;22.58;;;;;;;2.46;100.00;102194.63;5114761;28;20047;-78
2022/12/02 11:08:19;;;;;;;66.18;22.33;;;;;;;2.57;100.00;102197.19;5133859;28;20047;-77
2022/12/02 11:10:46;;;;;;;;;;;;;;;2.60;100.00;102204.88;5133917;27;20027;-77
2022/12/02 11:13:11;;;;;;;63.67;22.98;;;;;;;2.54;100.00;102200.09;5137444;27;19919;-78
2022/12/02 11:15:46;;;;;;;62.50;24.03;;;;;;;2.55;100.00;102201.75;5116841;28;20027;-78
2022/12/02 11:18:37;;;;;;;63.05;21.58;;;;;;;2.45;100.00;102179.75;5115754;28;20049;-78
2022/12/02 11:21:05;;;;;;;67.53;22.27;;;;;;;2.58;100.00;102198.84;5115250;28;20015;-78
2022/12/02 11:23:32;;;;;;;67.90;22.58;;;;;;;2.57;100.00;102196.34;5115825;28;20053;-78
2022/12/02 11:26:11;;;;;;;63.50;20.67;;;;;;;2.61;100.00;102190.72;5135392;28;20039;-78
2022/12/02 11:28:40;;;;;;;78.93;21.48;;;;;;;2.54;100.00;102178.97;5137302;27;20056;-78
2022/12/02 11:31:12;;;;;;;67.13;22.15;;;;;;;2.68;100.00;102188.38;5134240;27;20039;-78
2022/12/02 11:33:50;;;;;;;80.68;25.55;;;;;;;2.69;100.00;102204.09;5115044;28;20037;-78
2022/12/02 11:36:17;;;;;;;72.53;24.60;;;;;;;2.70;100.00;102200.50;5137246;27;20035;-77
2022/12/02 11:39:06;;;;;;;60.28;20.88;;;;;;;2.68;100.00;102199.78;5133578;28;20575;-78
2022/12/02 11:41:47;;;;;;;54.72;18.83;;;;;;;2.68;100.00;102199.78;5100009;28;20379;-78
2022/12/02 11:44:25;;;;;;;62.25;22.13;;;;;;;2.70;100.00;102194.38;5133555;27;20031;-77
2022/12/02 11:46:55;;;;;;;62.65;23.65;;;;;;;2.69;100.00;102187.41;5136392;27;20490;-77
2022/12/02 11:49:36;;;;;;;60.85;21.05;;;;;;;2.60;100.00;102191.69;5115275;28;20118;-77
2022/12/02 11:52:11;;;;;;;54.65;18.23;;;;;;;2.58;100.00;102183.00;5136718;27;20043;-78
2022/12/02 11:54:39;;;;;;;56.65;20.60;;;;;;;2.58;100.00;102184.81;5115711;28;20023;-78
2022/12/02 11:57:04;;;;;;;67.45;20.70;;;;;;;2.55;100.00;102179.81;5115216;28;20029;-78
2022/12/02 11:59:34;;;;;;;48.78;17.73;;;;;;;2.65;100.00;102186.84;5114735;28;20142;-77
2022/12/02 12:05:24;;;;;;;55.40;17.67;;;;;;;2.77;100.00;102184.94;5134196;27;20046;-76
2022/12/02 12:07:49;;;;;;;67.50;21.52;;;;;;;2.80;100.00;102168.84;5133045;28;20372;-77
2022/12/02 12:10:27;;;;;;;51.95;16.65;;;;;;;2.80;100.00;102169.69;5114408;28;20040;-78
2022/12/02 12:16:22;;;;;;;58.25;19.65;;;;;;;2.78;100.00;102166.34;5131483;28;20096;-78
2022/12/02 12:18:49;;;;;;;54.78;18.63;;;;;;;2.84;100.00;102166.78;5133161;28;20015;-78
2022/12/02 12:21:35;;;;;;;67.28;20.88;;;;;;;2.97;100.00;102170.06;5135847;27;20035;-77
2022/12/02 12:24:19;;;;;;;56.20;21.20;;;;;;;3.04;100.00;102169.38;5118288;28;20023;-77
2022/12/02 12:26:47;;;;;;;50.70;16.85;;;;;;;3.00;100.00;102175.91;5139306;27;20042;-77
2022/12/02 12:29:12;;;;;;;53.70;20.13;;;;;;;2.83;100.00;102160.66;5118888;28;20030;-77
2022/12/02 12:31:37;;;;;;;57.40;21.50;;;;;;;2.71;100.00;102157.28;5117894;28;20031;-77
2022/12/02 12:34:04;;;;;;;50.88;20.77;;;;;;;2.74;100.00;102161.44;5139394;27;20054;-77
2022/12/02 12:36:29;;;;;;;45.80;16.92;;;;;;;2.70;100.00;102165.31;5118033;28;20028;-78
2022/12/02 12:38:55;;;;;;;48.67;15.90;;;;;;;2.74;100.00;102151.72;5139063;27;20038;-78
2022/12/02 12:41:20;;;;;;;42.88;15.35;;;;;;;2.75;100.00;102147.28;5137473;27;20089;-78
2022/12/02 12:43:45;;;;;;;51.63;17.52;;;;;;;2.76;100.00;102155.06;5117649;27;20026;-78
2022/12/02 12:46:11;;;;;;;50.30;17.58;;;;;;;2.83;100.00;102154.53;5139198;27;20050;-78
2022/12/02 12:48:36;;;;;;;53.47;17.15;;;;;;;2.82;100.00;102147.59;5117513;28;20026;-78
2022/12/02 12:54:23;;;;;;;43.10;14.73;;;;;;;2.79;100.00;102151.31;5134542;28;20050;-78
2022/12/02 12:56:48;;;;;;;50.30;17.83;;;;;;;2.64;100.00;102142.91;5139599;27;20039;-77
2022/12/02 12:59:14;;;;;;;50.17;17.55;;;;;;;2.73;100.00;102143.94;5135893;28;20447;-78
2022/12/02 13:01:39;;;;;;;58.05;18.02;;;;;;;2.70;100.00;102136.28;5117464;28;20077;-77
2022/12/02 13:04:05;;;;;;;47.65;18.90;;;;;;;2.69;100.00;102143.34;5139025;27;20367;-77
2022/12/02 13:06:30;;;;;;;49.10;18.42;;;;;;;2.69;100.00;102130.16;5136128;28;20035;-78
2022/12/02 13:08:55;;;;;;;48.90;17.83;;;;;;;2.75;100.00;102129.63;5139265;27;20118;-77
2022/12/02 13:11:20;;;;;;;56.70;19.42;;;;;;;2.77;100.00;102129.50;5117411;28;20027;-78
2022/12/02 13:13:46;;;;;;;49.22;18.80;;;;;;;2.79;100.00;102124.91;5119840;27;20045;-77
2022/12/02 13:16:11;;;;;;;54.17;19.00;;;;;;;2.78;100.00;102113.50;5117627;28;20031;-78
2022/12/02 13:18:36;;;;;;;50.63;18.10;;;;;;;2.78;100.00;102116.16;5117160;28;20027;-78
2022/12/02 13:21:01;;;;;;;51.80;17.27;;;;;;;2.83;100.00;102126.31;5138587;27;20046;-78
2022/12/02 13:23:27;;;;;;;50.80;17.77;;;;;;;2.84;100.00;102122.72;5135742;28;20035;-78
2022/12/02 13:25:52;;;;;;;54.60;18.25;;;;;;;2.87;100.00;102118.97;5138836;27;20043;-78
2022/12/02 13:28:17;;;;;;;49.15;15.90;;;;;;;2.94;100.00;102114.84;5117194;28;20026;-77
2022/12/02 13:30:43;;;;;;;49.75;17.02;;;;;;;3.06;100.00;102111.13;5117206;27;20114;-78
2022/12/02 13:33:08;;;;;;;46.55;17.02;;;;;;;2.96;100.00;102104.97;5120166;27;20050;-78
2022/12/02 13:35:33;;;;;;;41.70;16.85;;;;;;;3.13;100.00;102111.41;5116274;28;20023;-77
2022/12/02 13:37:58;;;;;;;49.85;17.10;;;;;;;3.03;100.00;102109.59;5138601;27;20043;-77
2022/12/02 13:40:24;;;;;;;57.85;18.35;;;;;;;3.02;100.00;102109.72;5135344;28;20445;-78
2022/12/02 13:42:49;;;;;;;51.17;15.45;;;;;;;2.97;100.00;102104.00;5138425;27;20038;-77
2022/12/02 13:45:14;;;;;;;51.72;17.80;;;;;;;2.87;100.00;102098.66;5135073;27;20094;-77
2022/12/02 13:47:40;;;;;;;50.70;19.17;;;;;;;2.84;100.00;102101.59;5116479;28;20031;-78
2022/12/02 13:50:06;;;;;;;69.53;18.50;;;;;;;2.87;100.00;102116.31;5138364;27;20035;-77
2022/12/02 13:52:31;;;;;;;37.08;15.68;;;;;;;2.89;100.00;102115.25;5116436;28;20371;-77
2022/12/02 13:54:56;;;;;;;34.38;14.48;;;;;;;2.87;100.00;102116.31;5115816;28;20039;-77
2022/12/02 13:57:22;;;;;;;50.85;19.70;;;;;;;2.83;100.00;102120.19;5116700;28;20026;-78
2022/12/02 13:59:47;;;;;;;55.58;19.85;;;;;;;2.72;100.00;102119.31;5116551;27;20505;-77
2022/12/02 14:02:12;;;;;;;55.08;16.38;;;;;;;2.70;100.00;102117.78;5137846;27;20594;-78
2022/12/02 14:04:38;;;;;;;44.22;15.70;;;;;;;2.73;100.00;102128.91;5116704;28;20027;-77
2022/12/02 14:07:03;;;;;;;47.95;17.27;;;;;;;2.68;100.00;102131.13;5115758;28;20140;-78
2022/12/02 14:09:29;;;;;;;39.88;14.70;;;;;;;2.63;100.00;102122.75;5134763;28;20104;-77
2022/12/02 14:11:54;;;;;;;46.70;16.58;;;;;;;2.59;100.00;102113.41;5115843;28;20133;-78
2022/12/02 14:14:19;;;;;;;49.80;17.48;;;;;;;2.51;100.00;102112.38;5116321;28;20019;-78
2022/12/02 14:16:47;;;;;;;44.25;16.75;;;;;;;2.51;100.00;102121.16;5134825;28;20035;-77
2022/12/02 14:19:12;;;;;;;39.65;15.18;;;;;;;2.51;100.00;102125.59;5115694;28;20035;-78
2022/12/02 14:21:38;;;;;;;36.40;13.88;;;;;;;2.49;100.00;102123.91;5134512;28;20111;-75
2022/12/02 14:30:51;;;;;;;49.08;17.15;;;;;;;2.38;100.00;102128.44;5134518;28;20031;-75
2022/12/02 14:36:39;;;;;;;49.03;18.23;;;;;;;2.39;100.00;102130.94;5134770;28;20407;-77
2022/12/02 14:42:26;;;;;;;32.53;14.63;;;;;;;2.36;100.00;102117.19;5133528;28;20066;-76